createdAt,value
2019-02-21T00:00:36.051Z,7.41
2019-02-21T00:01:35.991Z,7.42
2019-02-21T00:02:35.931Z,7.45
2019-02-21T00:03:35.871Z,7.37
2019-02-21T00:04:35.807Z,7.41
2019-02-21T00:05:35.747Z,7.45
2019-02-21T00:06:35.686Z,7.37
2019-02-21T00:07:35.630Z,7.41
2019-02-21T00:08:35.564Z,7.38
2019-02-21T00:09:35.505Z,7.35
2019-02-21T00:10:35.452Z,7.44
2019-02-21T00:11:35.382Z,7.42
2019-02-21T00:12:35.322Z,7.31
2019-02-21T00:13:35.259Z,7.47
2019-02-21T00:14:35.207Z,7.38
2019-02-21T00:15:35.137Z,7.38
2019-02-21T00:16:35.076Z,7.35
2019-02-21T00:17:35.015Z,7.44
2019-02-21T00:18:34.954Z,7.38
2019-02-21T00:19:34.893Z,7.34
2019-02-21T00:20:34.832Z,7.37
2019-02-21T00:21:34.794Z,7.32
2019-02-21T00:22:34.715Z,7.41
2019-02-21T00:23:34.649Z,7.32
2019-02-21T00:24:34.586Z,7.32
2019-02-21T00:25:34.526Z,7.34
2019-02-21T00:26:34.466Z,7.38
2019-02-21T00:27:34.412Z,7.40
2019-02-21T00:28:34.344Z,7.37
2019-02-21T00:29:34.282Z,7.38
2019-02-21T00:30:35.483Z,7.37
2019-02-21T00:31:34.163Z,7.44
2019-02-21T00:32:34.102Z,7.31
2019-02-21T00:33:34.040Z,7.32
2019-02-21T00:34:33.978Z,7.32
2019-02-21T00:35:33.916Z,7.40
2019-02-21T00:36:33.856Z,7.31
2019-02-21T00:37:33.795Z,7.32
2019-02-21T00:38:33.733Z,7.34
2019-02-21T00:39:33.674Z,7.40
2019-02-21T00:40:33.612Z,7.29
2019-02-21T00:41:33.549Z,7.40
2019-02-21T00:42:33.489Z,7.24
2019-02-21T00:43:33.429Z,7.26
2019-02-21T00:44:33.367Z,7.23
2019-02-21T00:45:33.304Z,7.32
2019-02-21T00:46:33.247Z,7.32
2019-02-21T00:47:33.183Z,7.35
2019-02-21T00:48:33.127Z,7.31
2019-02-21T00:49:33.118Z,7.32
2019-02-21T00:50:33.003Z,7.37
2019-02-21T00:51:32.944Z,7.23
2019-02-21T00:52:32.878Z,7.37
2019-02-21T00:53:32.819Z,7.37
2019-02-21T00:54:32.758Z,7.22
2019-02-21T00:55:32.695Z,7.22
2019-02-21T00:56:32.633Z,7.19
2019-02-21T00:57:32.573Z,7.37
2019-02-21T00:58:32.513Z,7.23
2019-02-21T00:59:32.451Z,7.24
2019-02-21T01:00:32.389Z,7.37
2019-02-21T01:01:32.330Z,7.20
2019-02-21T01:02:32.268Z,7.27
2019-02-21T01:03:32.209Z,7.22
2019-02-21T01:04:32.146Z,7.20
2019-02-21T01:05:32.085Z,7.20
2019-02-21T01:06:32.023Z,7.20
2019-02-21T01:07:31.962Z,7.20
2019-02-21T01:08:31.900Z,7.24
2019-02-21T01:09:31.841Z,7.17
2019-02-21T01:10:31.778Z,7.23
2019-02-21T01:11:31.741Z,7.15
2019-02-21T01:12:31.655Z,7.22
2019-02-21T01:13:31.595Z,7.22
2019-02-21T01:14:31.534Z,7.24
2019-02-21T01:15:31.474Z,7.17
2019-02-21T01:16:31.412Z,7.20
2019-02-21T01:17:31.350Z,7.22
2019-02-21T01:18:31.292Z,7.17
2019-02-21T01:19:31.233Z,7.23
2019-02-21T01:20:31.167Z,7.23
2019-02-21T01:21:31.106Z,7.19
2019-02-21T01:22:31.045Z,7.23
2019-02-21T01:23:30.988Z,7.22
2019-02-21T01:24:30.924Z,7.22
2019-02-21T01:25:30.861Z,7.26
2019-02-21T01:26:30.805Z,7.19
2019-02-21T01:27:30.739Z,7.22
2019-02-21T01:28:30.678Z,7.19
2019-02-21T01:29:30.617Z,7.22
2019-02-21T01:30:30.557Z,7.16
2019-02-21T01:31:30.495Z,7.22
2019-02-21T01:32:30.436Z,7.19
2019-02-21T01:33:30.376Z,7.22
2019-02-21T01:34:30.312Z,7.20
2019-02-21T01:35:30.252Z,7.20
2019-02-21T01:36:30.193Z,7.08
2019-02-21T01:37:30.127Z,7.16
2019-02-21T01:38:30.067Z,7.23
2019-02-21T01:39:30.007Z,7.05
2019-02-21T01:40:29.943Z,7.19
2019-02-21T01:41:29.885Z,7.05
2019-02-21T01:42:29.822Z,7.22
2019-02-21T01:43:29.763Z,7.20
2019-02-21T01:44:29.708Z,7.12
2019-02-21T01:45:29.637Z,7.09
2019-02-21T01:46:29.578Z,7.07
2019-02-21T01:47:29.516Z,7.08
2019-02-21T01:48:29.690Z,7.09
2019-02-21T01:49:29.395Z,7.15
2019-02-21T01:50:31.532Z,7.12
2019-02-21T01:51:29.272Z,7.05
2019-02-21T01:52:29.209Z,7.13
2019-02-21T01:53:29.149Z,7.08
2019-02-21T01:54:29.089Z,7.07
2019-02-21T01:55:29.027Z,7.12
2019-02-21T01:56:28.969Z,7.13
2019-02-21T01:57:28.907Z,7.05
2019-02-21T01:58:28.844Z,7.09
2019-02-21T01:59:28.784Z,7.13
2019-02-21T02:00:28.719Z,7.09
2019-02-21T02:01:28.658Z,7.09
2019-02-21T02:02:28.597Z,7.04
2019-02-21T02:03:28.538Z,7.09
2019-02-21T02:04:28.479Z,7.12
2019-02-21T02:05:28.416Z,7.12
2019-02-21T02:06:28.405Z,7.13
2019-02-21T02:07:28.292Z,7.13
2019-02-21T02:08:28.231Z,7.08
2019-02-21T02:09:28.171Z,7.08
2019-02-21T02:10:28.109Z,7.07
2019-02-21T02:11:28.047Z,7.07
2019-02-21T02:12:27.985Z,7.08
2019-02-21T02:13:27.924Z,7.04
2019-02-21T02:14:27.989Z,7.07
2019-02-21T02:15:27.802Z,7.09
2019-02-21T02:16:27.957Z,7.02
2019-02-21T02:17:27.680Z,7.04
2019-02-21T02:18:27.621Z,7.08
2019-02-21T02:19:27.557Z,7.01
2019-02-21T02:20:27.501Z,7.09
2019-02-21T02:21:27.434Z,7.09
2019-02-21T02:22:27.381Z,7.07
2019-02-21T02:23:27.314Z,7.04
2019-02-21T02:24:27.254Z,6.97
2019-02-21T02:25:27.188Z,6.94
2019-02-21T02:26:27.128Z,7.05
2019-02-21T02:27:27.066Z,6.95
2019-02-21T02:28:27.006Z,7.05
2019-02-21T02:29:26.945Z,7.01
2019-02-21T02:30:26.889Z,6.95
2019-02-21T02:31:26.823Z,6.94
2019-02-21T02:32:26.772Z,6.91
2019-02-21T02:33:26.700Z,6.98
2019-02-21T02:34:26.640Z,6.99
2019-02-21T02:35:26.578Z,6.99
2019-02-21T02:36:26.524Z,6.95
2019-02-21T02:37:26.456Z,6.94
2019-02-21T02:38:26.394Z,6.98
2019-02-21T02:39:26.333Z,6.94
2019-02-21T02:40:26.271Z,6.97
2019-02-21T02:41:26.221Z,6.99
2019-02-21T02:42:26.148Z,7.02
2019-02-21T02:43:26.087Z,6.97
2019-02-21T02:44:26.024Z,6.99
2019-02-21T02:45:25.967Z,6.99
2019-02-21T02:46:25.907Z,7.02
2019-02-21T02:47:25.842Z,6.97
2019-02-21T02:48:25.832Z,6.95
2019-02-21T02:49:25.718Z,6.99
2019-02-21T02:50:25.660Z,6.95
2019-02-21T02:51:25.690Z,6.90
2019-02-21T02:52:25.536Z,6.95
2019-02-21T02:53:25.476Z,6.98
2019-02-21T02:54:25.412Z,6.98
2019-02-21T02:55:25.361Z,6.97
2019-02-21T02:56:25.295Z,6.98
2019-02-21T02:57:25.227Z,6.97
2019-02-21T02:58:25.170Z,6.95
2019-02-21T02:59:25.107Z,6.91
2019-02-21T03:00:25.046Z,6.94
2019-02-21T03:01:34.354Z,6.98
2019-02-21T03:02:24.922Z,6.95
2019-02-21T03:03:24.864Z,6.90
2019-02-21T03:04:24.849Z,6.94
2019-02-21T03:05:24.739Z,6.90
2019-02-21T03:06:24.680Z,6.95
2019-02-21T03:07:24.615Z,6.94
2019-02-21T03:08:24.553Z,6.91
2019-02-21T03:09:24.493Z,6.97
2019-02-21T03:10:24.430Z,6.94
2019-02-21T03:11:24.369Z,6.90
2019-02-21T03:12:24.307Z,6.89
2019-02-21T03:13:24.248Z,6.89
2019-02-21T03:14:24.186Z,6.87
2019-02-21T03:15:24.133Z,6.90
2019-02-21T03:16:24.065Z,6.94
2019-02-21T03:17:24.001Z,6.94
2019-02-21T03:18:23.942Z,6.91
2019-02-21T03:19:23.881Z,6.90
2019-02-21T03:20:23.819Z,6.87
2019-02-21T03:21:23.765Z,6.87
2019-02-21T03:22:23.698Z,6.86
2019-02-21T03:23:23.634Z,6.90
2019-02-21T03:24:23.571Z,6.86
2019-02-21T03:25:23.516Z,6.94
2019-02-21T03:26:23.448Z,6.87
2019-02-21T03:27:23.388Z,6.90
2019-02-21T03:28:23.338Z,6.90
2019-02-21T03:29:23.270Z,6.87
2019-02-21T03:30:23.204Z,6.87
2019-02-21T03:31:23.148Z,6.94
2019-02-21T03:32:23.082Z,6.89
2019-02-21T03:33:23.029Z,6.87
2019-02-21T03:34:22.966Z,6.86
2019-02-21T03:35:22.898Z,6.86
2019-02-21T03:36:22.838Z,6.83
2019-02-21T03:37:22.773Z,6.89
2019-02-21T03:38:22.728Z,6.84
2019-02-21T03:39:22.657Z,6.83
2019-02-21T03:40:22.590Z,6.81
2019-02-21T03:41:22.530Z,6.80
2019-02-21T03:42:22.467Z,6.84
2019-02-21T03:43:22.409Z,6.90
2019-02-21T03:44:22.372Z,6.83
2019-02-21T03:45:22.282Z,6.80
2019-02-21T03:46:22.221Z,6.81
2019-02-21T03:47:22.164Z,6.79
2019-02-21T03:48:22.098Z,6.83
2019-02-21T03:49:22.037Z,6.83
2019-02-21T03:50:21.977Z,6.81
2019-02-21T03:51:21.916Z,6.79
2019-02-21T03:52:21.864Z,6.84
2019-02-21T03:53:21.792Z,6.87
2019-02-21T03:54:21.729Z,6.83
2019-02-21T03:55:21.670Z,6.83
2019-02-21T03:56:21.606Z,6.77
2019-02-21T03:57:21.546Z,6.76
2019-02-21T03:58:21.497Z,6.79
2019-02-21T03:59:21.424Z,6.79
2019-02-21T04:00:21.364Z,6.79
2019-02-21T04:01:21.305Z,6.83
2019-02-21T04:02:21.403Z,6.86
2019-02-21T04:03:21.178Z,6.73
2019-02-21T04:04:21.116Z,6.77
2019-02-21T04:05:21.054Z,6.81
2019-02-21T04:06:20.993Z,6.84
2019-02-21T04:07:21.915Z,6.79
2019-02-21T04:08:20.871Z,6.76
2019-02-21T04:09:20.809Z,6.80
2019-02-21T04:10:20.749Z,6.81
2019-02-21T04:11:20.692Z,6.79
2019-02-21T04:12:20.626Z,6.79
2019-02-21T04:13:20.563Z,6.80
2019-02-21T04:14:21.144Z,6.81
2019-02-21T04:15:20.442Z,6.79
2019-02-21T04:16:20.378Z,6.77
2019-02-21T04:17:20.319Z,6.80
2019-02-21T04:18:20.258Z,6.83
2019-02-21T04:19:20.195Z,6.80
2019-02-21T04:20:20.132Z,6.81
2019-02-21T04:21:20.071Z,6.76
2019-02-21T04:22:20.040Z,6.80
2019-02-21T04:23:19.948Z,6.76
2019-02-21T04:24:19.888Z,6.79
2019-02-21T04:25:19.830Z,6.81
2019-02-21T04:26:19.771Z,6.68
2019-02-21T04:27:19.713Z,6.66
2019-02-21T04:28:19.642Z,6.79
2019-02-21T04:29:19.580Z,6.73
2019-02-21T04:30:19.524Z,6.68
2019-02-21T04:31:19.460Z,6.65
2019-02-21T04:32:19.403Z,6.66
2019-02-21T04:33:19.333Z,6.73
2019-02-21T04:34:19.271Z,6.73
2019-02-21T04:35:19.210Z,6.69
2019-02-21T04:36:19.150Z,6.66
2019-02-21T04:37:19.091Z,6.71
2019-02-21T04:38:19.026Z,6.69
2019-02-21T04:39:18.972Z,6.71
2019-02-21T04:40:18.910Z,6.77
2019-02-21T04:41:18.842Z,6.68
2019-02-21T04:42:18.780Z,6.66
2019-02-21T04:43:18.725Z,6.65
2019-02-21T04:44:18.658Z,6.79
2019-02-21T04:45:18.596Z,6.68
2019-02-21T04:46:18.539Z,6.69
2019-02-21T04:47:18.474Z,6.69
2019-02-21T04:48:18.411Z,6.68
2019-02-21T04:49:18.351Z,6.72
2019-02-21T04:50:18.289Z,6.73
2019-02-21T04:51:18.227Z,6.63
2019-02-21T04:52:18.170Z,6.68
2019-02-21T04:53:18.105Z,6.66
2019-02-21T04:54:18.043Z,6.76
2019-02-21T04:55:17.985Z,6.72
2019-02-21T04:56:17.922Z,6.65
2019-02-21T04:57:17.862Z,6.71
2019-02-21T04:58:17.875Z,6.65
2019-02-21T04:59:17.735Z,6.72
2019-02-21T05:00:17.672Z,6.65
2019-02-21T05:01:17.614Z,6.72
2019-02-21T05:02:28.162Z,6.72
2019-02-21T05:03:17.510Z,6.68
2019-02-21T05:04:17.426Z,6.69
2019-02-21T05:05:17.366Z,6.66
2019-02-21T05:06:17.327Z,6.69
2019-02-21T05:07:17.241Z,6.71
2019-02-21T05:08:17.180Z,6.68
2019-02-21T05:09:17.122Z,6.77
2019-02-21T05:10:17.058Z,6.68
2019-02-21T05:11:17.000Z,6.68
2019-02-21T05:12:16.937Z,6.69
2019-02-21T05:13:16.950Z,6.69
2019-02-21T05:14:16.813Z,6.72
2019-02-21T05:15:16.751Z,6.72
2019-02-21T05:16:16.688Z,6.69
2019-02-21T05:17:16.627Z,6.66
2019-02-21T05:18:16.568Z,6.66
2019-02-21T05:19:16.504Z,6.63
2019-02-21T05:20:16.443Z,6.69
2019-02-21T05:21:16.385Z,6.71
2019-02-21T05:22:16.326Z,6.65
2019-02-21T05:23:16.270Z,6.65
2019-02-21T05:24:16.196Z,6.62
2019-02-21T05:25:16.135Z,6.72
2019-02-21T05:26:16.073Z,6.62
2019-02-21T05:27:16.012Z,6.68
2019-02-21T05:28:15.949Z,6.59
2019-02-21T05:29:15.888Z,6.65
2019-02-21T05:30:15.832Z,6.61
2019-02-21T05:31:15.797Z,6.62
2019-02-21T05:32:15.702Z,6.65
2019-02-21T05:33:15.644Z,6.68
2019-02-21T05:34:15.585Z,6.62
2019-02-21T05:35:15.528Z,6.66
2019-02-21T05:36:15.497Z,6.71
2019-02-21T05:37:15.396Z,6.62
2019-02-21T05:38:15.334Z,6.72
2019-02-21T05:39:15.278Z,6.68
2019-02-21T05:40:15.214Z,6.68
2019-02-21T05:41:15.154Z,6.68
2019-02-21T05:42:15.101Z,6.68
2019-02-21T05:43:15.031Z,6.63
2019-02-21T05:44:14.965Z,6.68
2019-02-21T05:45:14.911Z,6.62
2019-02-21T05:46:14.843Z,6.61
2019-02-21T05:47:14.783Z,6.71
2019-02-21T05:48:14.718Z,6.65
2019-02-21T05:49:14.660Z,6.71
2019-02-21T05:50:14.665Z,6.59
2019-02-21T05:51:14.534Z,6.59
2019-02-21T05:52:14.472Z,6.71
2019-02-21T05:53:14.413Z,6.63
2019-02-21T05:54:14.350Z,6.61
2019-02-21T05:55:14.291Z,6.69
2019-02-21T05:56:14.225Z,6.62
2019-02-21T05:57:14.166Z,6.59
2019-02-21T05:58:14.102Z,6.62
2019-02-21T05:59:14.040Z,6.61
2019-02-21T06:00:13.979Z,6.58
2019-02-21T06:01:13.919Z,6.63
2019-02-21T06:02:13.856Z,6.61
2019-02-21T06:03:13.796Z,6.61
2019-02-21T06:04:13.780Z,6.61
2019-02-21T06:05:13.673Z,6.68
2019-02-21T06:06:13.624Z,6.66
2019-02-21T06:07:13.550Z,6.68
2019-02-21T06:08:13.490Z,6.65
2019-02-21T06:09:13.425Z,6.59
2019-02-21T06:10:13.370Z,6.62
2019-02-21T06:11:13.301Z,6.59
2019-02-21T06:12:13.239Z,6.61
2019-02-21T06:13:13.183Z,6.65
2019-02-21T06:14:13.132Z,6.62
2019-02-21T06:15:13.059Z,6.62
2019-02-21T06:16:13.020Z,6.61
2019-02-21T06:17:12.931Z,6.61
2019-02-21T06:18:12.879Z,6.65
2019-02-21T06:19:12.809Z,6.63
2019-02-21T06:20:12.748Z,6.58
2019-02-21T06:21:12.686Z,6.56
2019-02-21T06:22:12.625Z,6.72
2019-02-21T06:23:12.564Z,6.61
2019-02-21T06:24:12.499Z,6.65
2019-02-21T06:25:12.439Z,6.59
2019-02-21T06:26:12.377Z,6.63
2019-02-21T06:27:12.453Z,6.61
2019-02-21T06:28:12.253Z,6.65
2019-02-21T06:29:12.192Z,6.58
2019-02-21T06:30:12.130Z,6.63
2019-02-21T06:31:12.069Z,6.61
2019-02-21T06:32:14.490Z,6.68
2019-02-21T06:33:11.949Z,6.61
2019-02-21T06:34:11.888Z,6.59
2019-02-21T06:35:11.823Z,6.66
2019-02-21T06:36:11.759Z,6.65
2019-02-21T06:37:12.676Z,6.68
2019-02-21T06:38:11.637Z,6.62
2019-02-21T06:39:11.575Z,6.59
2019-02-21T06:40:11.515Z,6.65
2019-02-21T06:41:11.452Z,6.61
2019-02-21T06:42:12.379Z,6.61
2019-02-21T06:43:11.332Z,6.61
2019-02-21T06:44:11.271Z,6.65
2019-02-21T06:45:11.207Z,6.65
2019-02-21T06:46:13.595Z,6.58
2019-02-21T06:47:11.083Z,6.58
2019-02-21T06:48:11.023Z,6.56
2019-02-21T06:49:10.958Z,6.69
2019-02-21T06:50:10.897Z,6.59
2019-02-21T06:51:10.839Z,6.62
2019-02-21T06:52:10.773Z,6.61
2019-02-21T06:53:10.713Z,6.59
2019-02-21T06:54:10.650Z,6.63
2019-02-21T06:55:10.592Z,6.62
2019-02-21T06:56:10.547Z,6.59
2019-02-21T06:57:10.468Z,6.62
2019-02-21T06:58:10.407Z,6.61
2019-02-21T06:59:10.343Z,6.71
2019-02-21T07:00:10.284Z,6.72
2019-02-21T07:01:10.221Z,6.61
2019-02-21T07:02:10.157Z,6.59
2019-02-21T07:03:15.748Z,6.68
2019-02-21T07:04:10.035Z,6.63
2019-02-21T07:05:09.972Z,6.72
2019-02-21T07:06:09.911Z,6.62
2019-02-21T07:07:09.850Z,6.62
2019-02-21T07:08:09.788Z,6.66
2019-02-21T07:09:09.726Z,6.63
2019-02-21T07:10:09.668Z,6.73
2019-02-21T07:11:09.605Z,6.68
2019-02-21T07:12:10.624Z,6.66
2019-02-21T07:13:09.481Z,6.61
2019-02-21T07:14:09.417Z,6.73
2019-02-21T07:15:09.358Z,6.69
2019-02-21T07:16:09.883Z,6.65
2019-02-21T07:17:09.232Z,6.69
2019-02-21T07:18:11.071Z,6.65
2019-02-21T07:19:10.842Z,6.68
2019-02-21T07:20:09.048Z,6.71
2019-02-21T07:21:08.985Z,6.73
2019-02-21T07:22:08.930Z,6.63
2019-02-21T07:23:11.234Z,6.72
2019-02-21T07:24:08.804Z,6.69
2019-02-21T07:25:08.739Z,6.69
2019-02-21T07:26:08.677Z,6.72
2019-02-21T07:27:08.618Z,6.62
2019-02-21T07:28:11.820Z,6.65
2019-02-21T07:29:08.492Z,6.65
2019-02-21T07:30:19.239Z,6.69
2019-02-21T07:31:08.370Z,6.71
2019-02-21T07:32:08.327Z,6.69
2019-02-21T07:33:08.248Z,6.71
2019-02-21T07:34:08.190Z,6.63
2019-02-21T07:35:08.151Z,6.71
2019-02-21T07:36:10.863Z,6.65
2019-02-21T07:37:18.217Z,6.61
2019-02-21T07:38:07.937Z,6.71
2019-02-21T07:39:16.846Z,6.63
2019-02-21T07:40:07.821Z,6.72
2019-02-21T07:41:07.873Z,6.73
2019-02-21T07:42:07.699Z,6.63
2019-02-21T07:43:07.634Z,6.66
2019-02-21T07:44:12.106Z,6.65
2019-02-21T07:45:07.583Z,6.68
2019-02-21T07:46:07.444Z,6.73
2019-02-21T07:47:07.383Z,6.65
2019-02-21T07:48:07.321Z,6.72
2019-02-21T07:49:07.259Z,6.68
2019-02-21T07:50:07.197Z,6.73
2019-02-21T07:51:07.136Z,6.73
2019-02-21T07:52:07.074Z,6.77
2019-02-21T07:53:07.014Z,6.69
2019-02-21T07:54:06.951Z,6.71
2019-02-21T07:55:06.890Z,6.68
2019-02-21T07:56:06.830Z,6.71
2019-02-21T07:57:08.593Z,6.65
2019-02-21T07:58:06.706Z,6.69
2019-02-21T07:59:06.643Z,6.71
2019-02-21T08:00:06.580Z,6.62
2019-02-21T08:01:06.519Z,6.69
2019-02-21T08:02:06.467Z,6.71
2019-02-21T08:03:09.028Z,6.73
2019-02-21T08:04:06.333Z,6.77
2019-02-21T08:05:06.273Z,6.63
2019-02-21T08:06:06.212Z,6.66
2019-02-21T08:07:06.154Z,6.66
2019-02-21T08:08:06.086Z,6.62
2019-02-21T08:09:06.026Z,6.71
2019-02-21T08:10:05.966Z,6.65
2019-02-21T08:11:07.165Z,6.65
2019-02-21T08:12:05.845Z,6.71
2019-02-21T08:13:05.782Z,6.65
2019-02-21T08:14:05.720Z,6.79
2019-02-21T08:15:05.665Z,6.62
2019-02-21T08:16:05.599Z,6.73
2019-02-21T08:17:05.532Z,6.79
2019-02-21T08:18:05.471Z,6.73
2019-02-21T08:19:05.408Z,6.77
2019-02-21T08:20:08.217Z,6.72
2019-02-21T08:21:05.287Z,6.72
2019-02-21T08:22:05.229Z,6.65
2019-02-21T08:23:05.165Z,6.71
2019-02-21T08:24:05.108Z,6.76
2019-02-21T08:25:05.040Z,6.73
2019-02-21T08:26:04.977Z,6.66
2019-02-21T08:27:04.915Z,6.66
2019-02-21T08:28:04.859Z,6.66
2019-02-21T08:29:06.157Z,6.79
2019-02-21T08:30:04.731Z,6.73
2019-02-21T08:31:04.672Z,6.76
2019-02-21T08:32:04.606Z,6.66
2019-02-21T08:33:04.555Z,6.68
2019-02-21T08:34:04.618Z,6.66
2019-02-21T08:35:06.831Z,6.63
2019-02-21T08:36:04.359Z,6.71
2019-02-21T08:37:04.298Z,6.69
2019-02-21T08:38:04.237Z,6.73
2019-02-21T08:39:04.180Z,6.77
2019-02-21T08:40:04.115Z,6.73
2019-02-21T08:41:04.053Z,6.77
2019-02-21T08:42:03.990Z,6.76
2019-02-21T08:43:04.226Z,6.77
2019-02-21T08:44:03.869Z,6.81
2019-02-21T08:45:03.806Z,6.76
2019-02-21T08:46:03.744Z,6.81
2019-02-21T08:47:03.683Z,6.76
2019-02-21T08:48:03.621Z,6.86
2019-02-21T08:49:03.560Z,6.77
2019-02-21T08:50:03.500Z,6.84
2019-02-21T08:51:06.020Z,6.81
2019-02-21T08:52:03.375Z,6.79
2019-02-21T08:53:03.313Z,6.79
2019-02-21T08:54:05.501Z,6.81
2019-02-21T08:55:03.189Z,6.73
2019-02-21T08:56:03.128Z,6.80
2019-02-21T08:57:03.069Z,6.77
2019-02-21T08:58:03.007Z,6.81
2019-02-21T08:59:02.942Z,6.76
2019-02-21T09:00:02.880Z,6.77
2019-02-21T09:01:02.819Z,6.77
2019-02-21T09:02:04.999Z,6.79
2019-02-21T09:03:02.701Z,6.80
2019-02-21T09:04:10.036Z,6.86
2019-02-21T09:05:02.573Z,6.89
2019-02-21T09:06:02.560Z,6.83
2019-02-21T09:07:02.450Z,6.87
2019-02-21T09:08:02.386Z,6.83
2019-02-21T09:09:02.326Z,6.87
2019-02-21T09:10:02.265Z,6.86
2019-02-21T09:11:04.106Z,6.94
2019-02-21T09:12:02.193Z,6.89
2019-02-21T09:13:02.079Z,6.89
2019-02-21T09:14:02.018Z,6.89
2019-02-21T09:15:01.956Z,6.84
2019-02-21T09:16:01.895Z,6.89
2019-02-21T09:17:01.833Z,6.89
2019-02-21T09:18:01.771Z,6.91
2019-02-21T09:19:01.712Z,6.91
2019-02-21T09:20:01.686Z,6.95
2019-02-21T09:21:01.587Z,6.97
2019-02-21T09:22:01.524Z,6.95
2019-02-21T09:23:01.467Z,6.97
2019-02-21T09:24:01.400Z,6.91
2019-02-21T09:25:02.824Z,6.98
2019-02-21T09:26:01.278Z,6.99
2019-02-21T09:27:01.220Z,6.95
2019-02-21T09:28:01.155Z,7.01
2019-02-21T09:29:01.094Z,6.99
2019-02-21T09:30:01.036Z,6.98
2019-02-21T09:31:00.970Z,6.99
2019-02-21T09:32:00.907Z,6.97
2019-02-21T09:33:00.849Z,6.98
2019-02-21T09:34:00.787Z,6.94
2019-02-21T09:35:00.726Z,6.97
2019-02-21T09:36:00.663Z,6.91
2019-02-21T09:37:00.604Z,6.95
2019-02-21T09:38:00.540Z,6.98
2019-02-21T09:39:00.480Z,6.98
2019-02-21T09:40:00.418Z,6.91
2019-02-21T09:41:00.353Z,6.91
2019-02-21T09:42:00.295Z,6.98
2019-02-21T09:43:00.235Z,6.97
2019-02-21T09:44:00.171Z,7.01
2019-02-21T09:45:00.310Z,6.94
2019-02-21T09:46:00.050Z,6.95
2019-02-21T09:46:59.995Z,6.97
2019-02-21T09:48:00.000Z,6.97
2019-02-21T09:48:59.862Z,7.02
2019-02-21T09:49:59.805Z,6.95
2019-02-21T09:50:59.738Z,6.95
2019-02-21T09:51:59.681Z,6.97
2019-02-21T09:52:59.616Z,7.05
2019-02-21T09:53:59.556Z,7.05
2019-02-21T09:54:59.493Z,7.08
2019-02-21T09:55:59.431Z,6.95
2019-02-21T09:56:59.370Z,7.04
2019-02-21T09:57:59.316Z,7.09
2019-02-21T09:58:59.248Z,7.09
2019-02-21T09:59:59.184Z,7.05
2019-02-21T10:00:59.127Z,7.04
2019-02-21T10:01:59.076Z,7.07
2019-02-21T10:02:59.075Z,7.05
2019-02-21T10:03:58.938Z,7.09
2019-02-21T10:05:05.028Z,7.08
2019-02-21T10:05:58.813Z,7.07
2019-02-21T10:06:58.754Z,7.12
2019-02-21T10:07:58.691Z,7.12
2019-02-21T10:08:58.636Z,7.08
2019-02-21T10:10:00.784Z,7.13
2019-02-21T10:11:00.743Z,7.05
2019-02-21T10:11:59.184Z,7.09
2019-02-21T10:12:58.392Z,7.07
2019-02-21T10:13:58.920Z,7.12
2019-02-21T10:14:58.261Z,7.13
2019-02-21T10:15:58.200Z,7.07
2019-02-21T10:16:58.137Z,7.22
2019-02-21T10:17:58.077Z,7.13
2019-02-21T10:18:58.016Z,7.04
2019-02-21T10:19:57.956Z,7.08
2019-02-21T10:20:57.892Z,7.20
2019-02-21T10:21:57.831Z,7.20
2019-02-21T10:22:57.804Z,7.23
2019-02-21T10:23:57.771Z,7.22
2019-02-21T10:24:57.647Z,7.20
2019-02-21T10:25:57.584Z,7.17
2019-02-21T10:26:57.523Z,7.20
2019-02-21T10:27:59.010Z,7.22
2019-02-21T10:28:57.407Z,7.20
2019-02-21T10:29:57.343Z,7.26
2019-02-21T10:30:57.278Z,7.22
2019-02-21T10:31:57.214Z,7.22
2019-02-21T10:32:57.154Z,7.22
2019-02-21T10:33:57.094Z,7.24
2019-02-21T10:34:57.032Z,7.20
2019-02-21T10:35:56.970Z,7.15
2019-02-21T10:36:56.909Z,7.19
2019-02-21T10:37:56.850Z,7.23
2019-02-21T10:38:56.786Z,7.27
2019-02-21T10:39:56.723Z,7.23
2019-02-21T10:40:56.662Z,7.38
2019-02-21T10:41:56.615Z,7.27
2019-02-21T10:42:56.541Z,7.22
2019-02-21T10:43:56.480Z,7.41
2019-02-21T10:44:56.419Z,7.40
2019-02-21T10:45:56.356Z,7.32
2019-02-21T10:46:56.294Z,7.32
2019-02-21T10:47:56.231Z,7.22
2019-02-21T10:48:56.172Z,7.29
2019-02-21T10:49:56.114Z,7.29
2019-02-21T10:50:56.051Z,7.29
2019-02-21T10:51:55.987Z,7.40
2019-02-21T10:52:55.928Z,7.37
2019-02-21T10:53:55.865Z,7.32
2019-02-21T10:54:55.804Z,7.37
2019-02-21T10:55:55.740Z,7.35
2019-02-21T10:56:55.683Z,7.34
2019-02-21T10:57:55.620Z,7.37
2019-02-21T10:58:55.559Z,7.37
2019-02-21T10:59:55.495Z,7.38
2019-02-21T11:00:55.434Z,7.35
2019-02-21T11:01:55.374Z,7.40
2019-02-21T11:02:55.313Z,7.44
2019-02-21T11:03:55.301Z,7.38
2019-02-21T11:04:55.352Z,7.42
2019-02-21T11:05:55.127Z,7.42
2019-02-21T11:06:55.067Z,7.42
2019-02-21T11:07:55.006Z,7.42
2019-02-21T11:08:54.943Z,7.42
2019-02-21T11:09:54.884Z,7.49
2019-02-21T11:10:54.820Z,7.41
2019-02-21T11:11:54.761Z,7.44
2019-02-21T11:12:54.699Z,7.42
2019-02-21T11:13:54.637Z,7.45
2019-02-21T11:14:54.577Z,7.42
2019-02-21T11:15:54.513Z,7.50
2019-02-21T11:16:54.453Z,7.38
2019-02-21T11:17:54.401Z,7.50
2019-02-21T11:18:54.332Z,7.50
2019-02-21T11:19:54.271Z,7.55
2019-02-21T11:20:54.208Z,7.58
2019-02-21T11:21:54.149Z,7.60
2019-02-21T11:22:54.092Z,7.50
2019-02-21T11:23:54.075Z,7.63
2019-02-21T11:24:53.964Z,7.58
2019-02-21T11:25:53.905Z,7.56
2019-02-21T11:26:53.843Z,7.55
2019-02-21T11:27:53.778Z,7.59
2019-02-21T11:28:53.735Z,7.62
2019-02-21T11:29:53.659Z,7.62
2019-02-21T11:30:53.595Z,7.63
2019-02-21T11:31:53.598Z,7.66
2019-02-21T11:32:53.474Z,7.62
2019-02-21T11:33:53.411Z,7.62
2019-02-21T11:34:53.355Z,7.67
2019-02-21T11:35:53.287Z,7.66
2019-02-21T11:36:53.227Z,7.58
2019-02-21T11:37:53.166Z,7.62
2019-02-21T11:38:53.105Z,7.66
2019-02-21T11:39:53.044Z,7.60
2019-02-21T11:40:52.982Z,7.63
2019-02-21T11:41:52.987Z,7.74
2019-02-21T11:42:52.860Z,7.63
2019-02-21T11:43:52.800Z,7.66
2019-02-21T11:46:24.291Z,7.77
2019-02-21T11:47:24.191Z,7.75
2019-02-21T11:49:17.005Z,7.77
2019-02-21T11:50:16.906Z,7.72
2019-02-21T11:52:10.537Z,7.75
2019-02-21T11:53:09.617Z,7.69
2019-02-21T11:55:02.400Z,7.77
2019-02-21T11:56:02.327Z,7.78
2019-02-21T11:57:55.262Z,7.82
2019-02-21T11:58:55.043Z,7.77
2019-02-21T12:00:47.825Z,7.72
2019-02-21T12:01:47.755Z,7.75
2019-02-21T12:03:40.575Z,7.82
2019-02-21T12:04:40.468Z,7.82
2019-02-21T12:06:33.246Z,7.77
2019-02-21T12:07:33.182Z,7.82
2019-02-21T12:09:25.995Z,7.79
2019-02-21T12:10:25.897Z,7.84
2019-02-21T12:12:18.706Z,7.79
2019-02-21T12:13:18.605Z,7.79
2019-02-21T12:15:11.387Z,7.89
2019-02-21T12:16:11.318Z,7.87
2019-02-21T12:18:04.127Z,7.89
2019-02-21T12:19:04.035Z,7.90
2019-02-21T12:20:56.809Z,7.94
2019-02-21T12:21:59.344Z,7.93
2019-02-21T12:23:49.558Z,7.92
2019-02-21T12:24:49.459Z,7.87
2019-02-21T12:26:42.238Z,7.96
2019-02-21T12:27:42.174Z,7.92
2019-02-21T12:29:34.985Z,7.99
2019-02-21T12:30:34.886Z,7.99
2019-02-21T12:32:27.673Z,7.97
2019-02-21T12:33:27.602Z,8.00
2019-02-21T12:35:29.197Z,7.97
2019-02-21T12:36:20.314Z,8.00
2019-02-21T12:38:13.095Z,7.97
2019-02-21T12:39:13.034Z,7.99
2019-02-21T12:41:06.343Z,8.02
2019-02-21T12:42:06.243Z,8.02
2019-02-21T12:43:06.180Z,8.03
2019-02-21T12:44:06.117Z,8.02
2019-02-21T12:45:06.056Z,8.03
2019-02-21T12:46:05.999Z,8.03
2019-02-21T12:47:05.935Z,8.03
2019-02-21T12:48:05.875Z,8.00
2019-02-21T12:49:05.813Z,8.00
2019-02-21T12:50:05.751Z,8.10
2019-02-21T12:51:05.693Z,8.03
2019-02-21T12:52:05.629Z,8.10
2019-02-21T12:53:05.567Z,8.12
2019-02-21T12:54:05.509Z,8.11
2019-02-21T12:55:05.450Z,8.07
2019-02-21T12:56:05.388Z,8.07
2019-02-21T12:57:05.339Z,8.04
2019-02-21T12:58:05.267Z,8.11
2019-02-21T12:59:05.206Z,8.12
2019-02-21T13:00:05.459Z,8.10
2019-02-21T13:01:05.081Z,8.14
2019-02-21T13:02:05.025Z,8.10
2019-02-21T13:03:04.962Z,8.11
2019-02-21T13:04:04.901Z,8.04
2019-02-21T13:05:04.839Z,8.11
2019-02-21T13:06:04.778Z,8.14
2019-02-21T13:07:04.733Z,8.14
2019-02-21T13:08:04.661Z,8.11
2019-02-21T13:09:04.594Z,8.08
2019-02-21T13:10:04.533Z,8.17
2019-02-21T13:11:04.473Z,8.10
2019-02-21T13:12:04.412Z,8.07
2019-02-21T13:13:04.353Z,8.17
2019-02-21T13:14:04.289Z,8.04
2019-02-21T13:15:04.228Z,8.14
2019-02-21T13:16:04.168Z,8.14
2019-02-21T13:17:04.107Z,8.10
2019-02-21T13:18:15.057Z,8.17
2019-02-21T13:19:03.985Z,8.18
2019-02-21T13:20:03.925Z,8.15
2019-02-21T13:21:03.869Z,8.25
2019-02-21T13:22:03.804Z,8.21
2019-02-21T13:23:03.743Z,8.20
2019-02-21T13:24:03.693Z,8.17
2019-02-21T13:25:03.622Z,8.18
2019-02-21T13:26:03.564Z,8.17
2019-02-21T13:27:03.498Z,8.22
2019-02-21T13:28:03.438Z,8.17
2019-02-21T13:29:03.379Z,8.15
2019-02-21T13:30:03.317Z,8.15
2019-02-21T13:31:03.256Z,8.21
2019-02-21T13:32:03.205Z,8.26
2019-02-21T13:33:03.132Z,8.25
2019-02-21T13:34:03.073Z,8.15
2019-02-21T13:35:03.012Z,8.20
2019-02-21T13:36:02.951Z,8.25